sensor_id;sensor_type;location;lat;lon;timestamp;P1;durP1;ratioP1;P2;durP2;ratioP2
57029;SDS011;42920;45.306;20.448;2023-03-26T00:01:47;7.47;;;3.90;;
57029;SDS011;42920;45.306;20.448;2023-03-26T00:04:13;5.82;;;3.70;;
57029;SDS011;42920;45.306;20.448;2023-03-26T00:06:43;7.65;;;3.72;;
57029;SDS011;42920;45.306;20.448;2023-03-26T00:09:13;6.10;;;4.13;;
57029;SDS011;42920;45.306;20.448;2023-03-26T00:11:40;7.88;;;4.22;;
57029;SDS011;42920;45.306;20.448;2023-03-26T00:14:07;6.88;;;3.70;;
57029;SDS011;42920;45.306;20.448;2023-03-26T00:16:33;6.78;;;4.10;;
57029;SDS011;42920;45.306;20.448;2023-03-26T00:18:59;6.53;;;3.85;;
57029;SDS011;42920;45.306;20.448;2023-03-26T00:21:27;8.55;;;4.05;;
57029;SDS011;42920;45.306;20.448;2023-03-26T00:23:58;10.40;;;4.43;;
57029;SDS011;42920;45.306;20.448;2023-03-26T00:26:29;8.85;;;4.78;;
57029;SDS011;42920;45.306;20.448;2023-03-26T00:28:56;7.50;;;4.07;;
57029;SDS011;42920;45.306;20.448;2023-03-26T00:31:24;9.80;;;4.15;;
57029;SDS011;42920;45.306;20.448;2023-03-26T00:33:51;8.63;;;5.03;;
57029;SDS011;42920;45.306;20.448;2023-03-26T00:36:20;7.72;;;4.55;;
57029;SDS011;42920;45.306;20.448;2023-03-26T00:38:49;6.57;;;4.10;;
57029;SDS011;42920;45.306;20.448;2023-03-26T00:41:17;7.40;;;4.28;;
57029;SDS011;42920;45.306;20.448;2023-03-26T00:43:50;8.65;;;5.03;;
57029;SDS011;42920;45.306;20.448;2023-03-26T00:46:19;6.75;;;4.22;;
57029;SDS011;42920;45.306;20.448;2023-03-26T00:48:45;6.90;;;3.92;;
57029;SDS011;42920;45.306;20.448;2023-03-26T00:51:11;6.47;;;3.92;;
57029;SDS011;42920;45.306;20.448;2023-03-26T00:53:42;8.38;;;3.25;;
57029;SDS011;42920;45.306;20.448;2023-03-26T00:56:09;10.15;;;4.88;;
57029;SDS011;42920;45.306;20.448;2023-03-26T00:58:35;8.52;;;3.92;;
57029;SDS011;42920;45.306;20.448;2023-03-26T01:01:02;8.13;;;3.97;;
57029;SDS011;42920;45.306;20.448;2023-03-26T01:03:32;6.55;;;4.20;;
57029;SDS011;42920;45.306;20.448;2023-03-26T01:06:00;5.95;;;3.80;;
57029;SDS011;42920;45.306;20.448;2023-03-26T01:08:44;6.85;;;3.65;;
57029;SDS011;42920;45.306;20.448;2023-03-26T01:11:13;7.65;;;4.35;;
57029;SDS011;42920;45.306;20.448;2023-03-26T01:13:43;6.68;;;3.90;;
57029;SDS011;42920;45.306;20.448;2023-03-26T01:16:21;5.13;;;3.83;;
57029;SDS011;42920;45.306;20.448;2023-03-26T01:18:57;6.55;;;3.97;;
57029;SDS011;42920;45.306;20.448;2023-03-26T01:21:25;7.18;;;3.70;;
57029;SDS011;42920;45.306;20.448;2023-03-26T01:28:58;9.13;;;4.15;;
57029;SDS011;42920;45.306;20.448;2023-03-26T01:31:29;5.82;;;3.50;;
57029;SDS011;42920;45.306;20.448;2023-03-26T01:39:37;7.28;;;3.92;;
57029;SDS011;42920;45.306;20.448;2023-03-26T01:42:19;5.03;;;2.83;;
57029;SDS011;42920;45.306;20.448;2023-03-26T01:45:16;6.47;;;3.33;;
57029;SDS011;42920;45.306;20.448;2023-03-26T01:47:46;6.53;;;3.78;;
57029;SDS011;42920;45.306;20.448;2023-03-26T01:50:13;6.65;;;3.50;;
57029;SDS011;42920;45.306;20.448;2023-03-26T01:52:39;6.70;;;3.72;;
57029;SDS011;42920;45.306;20.448;2023-03-26T01:55:05;6.55;;;3.80;;
57029;SDS011;42920;45.306;20.448;2023-03-26T01:57:45;7.28;;;4.18;;
57029;SDS011;42920;45.306;20.448;2023-03-26T02:00:23;9.93;;;4.95;;
57029;SDS011;42920;45.306;20.448;2023-03-26T02:08:40;21.58;;;11.00;;
57029;SDS011;42920;45.306;20.448;2023-03-26T02:11:13;14.40;;;8.50;;
57029;SDS011;42920;45.306;20.448;2023-03-26T02:13:39;15.18;;;7.30;;
57029;SDS011;42920;45.306;20.448;2023-03-26T02:16:08;10.13;;;5.30;;
57029;SDS011;42920;45.306;20.448;2023-03-26T02:18:40;10.57;;;6.38;;
57029;SDS011;42920;45.306;20.448;2023-03-26T02:23:42;14.05;;;7.93;;
57029;SDS011;42920;45.306;20.448;2023-03-26T02:26:12;14.23;;;8.35;;
57029;SDS011;42920;45.306;20.448;2023-03-26T02:28:40;8.40;;;4.18;;
57029;SDS011;42920;45.306;20.448;2023-03-26T02:31:06;12.68;;;6.70;;
57029;SDS011;42920;45.306;20.448;2023-03-26T02:33:35;12.60;;;6.95;;
57029;SDS011;42920;45.306;20.448;2023-03-26T02:36:01;9.43;;;6.80;;
57029;SDS011;42920;45.306;20.448;2023-03-26T02:38:28;6.57;;;3.85;;
57029;SDS011;42920;45.306;20.448;2023-03-26T02:40:59;5.30;;;3.60;;
57029;SDS011;42920;45.306;20.448;2023-03-26T02:43:25;7.53;;;4.05;;
57029;SDS011;42920;45.306;20.448;2023-03-26T02:45:51;4.47;;;2.65;;
57029;SDS011;42920;45.306;20.448;2023-03-26T02:50:44;4.28;;;2.92;;
57029;SDS011;42920;45.306;20.448;2023-03-26T02:53:10;6.55;;;3.63;;
57029;SDS011;42920;45.306;20.448;2023-03-26T02:55:37;5.30;;;3.25;;
57029;SDS011;42920;45.306;20.448;2023-03-26T02:58:03;6.45;;;3.35;;
57029;SDS011;42920;45.306;20.448;2023-03-26T03:00:30;6.88;;;3.17;;
57029;SDS011;42920;45.306;20.448;2023-03-26T03:02:57;5.00;;;3.17;;
57029;SDS011;42920;45.306;20.448;2023-03-26T03:05:23;6.00;;;3.00;;
57029;SDS011;42920;45.306;20.448;2023-03-26T03:07:52;6.03;;;3.40;;
57029;SDS011;42920;45.306;20.448;2023-03-26T03:10:22;5.05;;;3.33;;
57029;SDS011;42920;45.306;20.448;2023-03-26T03:12:49;5.30;;;3.10;;
57029;SDS011;42920;45.306;20.448;2023-03-26T03:15:14;5.93;;;3.00;;
57029;SDS011;42920;45.306;20.448;2023-03-26T03:20:06;5.57;;;3.30;;
57029;SDS011;42920;45.306;20.448;2023-03-26T03:22:35;6.82;;;3.03;;
57029;SDS011;42920;45.306;20.448;2023-03-26T03:25:02;5.35;;;3.17;;
57029;SDS011;42920;45.306;20.448;2023-03-26T03:27:29;6.53;;;2.90;;
57029;SDS011;42920;45.306;20.448;2023-03-26T03:29:54;5.35;;;2.83;;
57029;SDS011;42920;45.306;20.448;2023-03-26T03:32:23;5.47;;;2.85;;
57029;SDS011;42920;45.306;20.448;2023-03-26T03:34:49;5.95;;;3.17;;
57029;SDS011;42920;45.306;20.448;2023-03-26T03:37:17;8.98;;;2.85;;
57029;SDS011;42920;45.306;20.448;2023-03-26T03:39:44;6.10;;;3.53;;
57029;SDS011;42920;45.306;20.448;2023-03-26T03:42:10;5.32;;;3.13;;
57029;SDS011;42920;45.306;20.448;2023-03-26T03:44:36;7.45;;;3.50;;
57029;SDS011;42920;45.306;20.448;2023-03-26T03:47:02;6.18;;;3.50;;
57029;SDS011;42920;45.306;20.448;2023-03-26T03:49:28;5.90;;;3.03;;
57029;SDS011;42920;45.306;20.448;2023-03-26T03:51:54;7.53;;;3.38;;
57029;SDS011;42920;45.306;20.448;2023-03-26T03:54:19;6.55;;;3.40;;
57029;SDS011;42920;45.306;20.448;2023-03-26T03:56:46;6.28;;;3.50;;
57029;SDS011;42920;45.306;20.448;2023-03-26T03:59:12;7.95;;;4.00;;
57029;SDS011;42920;45.306;20.448;2023-03-26T04:01:39;7.70;;;4.15;;
57029;SDS011;42920;45.306;20.448;2023-03-26T04:04:07;7.28;;;3.28;;
57029;SDS011;42920;45.306;20.448;2023-03-26T04:06:33;7.13;;;3.85;;
57029;SDS011;42920;45.306;20.448;2023-03-26T04:08:59;5.65;;;3.15;;
57029;SDS011;42920;45.306;20.448;2023-03-26T04:11:25;5.78;;;3.33;;
57029;SDS011;42920;45.306;20.448;2023-03-26T04:16:16;7.05;;;3.53;;
57029;SDS011;42920;45.306;20.448;2023-03-26T04:21:09;7.65;;;2.97;;
57029;SDS011;42920;45.306;20.448;2023-03-26T04:23:36;7.75;;;4.03;;
57029;SDS011;42920;45.306;20.448;2023-03-26T04:26:04;8.23;;;3.60;;
57029;SDS011;42920;45.306;20.448;2023-03-26T04:28:44;4.85;;;2.83;;
57029;SDS011;42920;45.306;20.448;2023-03-26T04:31:19;4.03;;;2.30;;
57029;SDS011;42920;45.306;20.448;2023-03-26T04:33:53;5.50;;;3.20;;
57029;SDS011;42920;45.306;20.448;2023-03-26T04:36:25;5.18;;;2.97;;
57029;SDS011;42920;45.306;20.448;2023-03-26T04:38:52;4.80;;;3.00;;
57029;SDS011;42920;45.306;20.448;2023-03-26T04:41:19;6.43;;;3.40;;
57029;SDS011;42920;45.306;20.448;2023-03-26T04:43:50;5.45;;;3.40;;
57029;SDS011;42920;45.306;20.448;2023-03-26T04:46:17;5.40;;;3.20;;
57029;SDS011;42920;45.306;20.448;2023-03-26T04:48:46;8.15;;;3.20;;
57029;SDS011;42920;45.306;20.448;2023-03-26T04:51:13;6.38;;;3.17;;
57029;SDS011;42920;45.306;20.448;2023-03-26T04:53:52;6.53;;;3.50;;
57029;SDS011;42920;45.306;20.448;2023-03-26T04:56:28;5.68;;;3.10;;
57029;SDS011;42920;45.306;20.448;2023-03-26T04:58:56;5.70;;;2.90;;
57029;SDS011;42920;45.306;20.448;2023-03-26T05:01:24;5.13;;;2.92;;
57029;SDS011;42920;45.306;20.448;2023-03-26T05:03:52;6.80;;;3.05;;
57029;SDS011;42920;45.306;20.448;2023-03-26T05:06:19;7.80;;;3.15;;
57029;SDS011;42920;45.306;20.448;2023-03-26T05:08:46;6.20;;;3.28;;
57029;SDS011;42920;45.306;20.448;2023-03-26T05:11:12;10.15;;;4.75;;
57029;SDS011;42920;45.306;20.448;2023-03-26T05:13:37;9.10;;;4.47;;
57029;SDS011;42920;45.306;20.448;2023-03-26T05:16:07;9.10;;;4.20;;
57029;SDS011;42920;45.306;20.448;2023-03-26T05:18:34;5.80;;;3.03;;
57029;SDS011;42920;45.306;20.448;2023-03-26T05:20:59;7.00;;;2.90;;
57029;SDS011;42920;45.306;20.448;2023-03-26T05:25:51;5.22;;;2.95;;
57029;SDS011;42920;45.306;20.448;2023-03-26T05:30:44;5.68;;;3.22;;
57029;SDS011;42920;45.306;20.448;2023-03-26T05:33:11;11.00;;;4.88;;
57029;SDS011;42920;45.306;20.448;2023-03-26T05:35:36;8.85;;;3.90;;
57029;SDS011;42920;45.306;20.448;2023-03-26T05:38:02;9.68;;;4.45;;
57029;SDS011;42920;45.306;20.448;2023-03-26T05:40:28;8.93;;;4.47;;
57029;SDS011;42920;45.306;20.448;2023-03-26T05:45:19;5.38;;;2.70;;
57029;SDS011;42920;45.306;20.448;2023-03-26T05:47:46;5.78;;;3.67;;
57029;SDS011;42920;45.306;20.448;2023-03-26T05:50:13;5.22;;;3.15;;
57029;SDS011;42920;45.306;20.448;2023-03-26T05:52:40;4.65;;;2.58;;
57029;SDS011;42920;45.306;20.448;2023-03-26T05:55:05;5.90;;;2.67;;
57029;SDS011;42920;45.306;20.448;2023-03-26T05:57:32;6.45;;;2.60;;
57029;SDS011;42920;45.306;20.448;2023-03-26T05:59:59;8.50;;;4.13;;
57029;SDS011;42920;45.306;20.448;2023-03-26T06:02:27;7.15;;;4.40;;
57029;SDS011;42920;45.306;20.448;2023-03-26T06:04:53;11.20;;;6.05;;
57029;SDS011;42920;45.306;20.448;2023-03-26T06:07:20;6.78;;;4.07;;
57029;SDS011;42920;45.306;20.448;2023-03-26T06:09:47;5.00;;;2.60;;
57029;SDS011;42920;45.306;20.448;2023-03-26T06:12:13;5.85;;;2.92;;
57029;SDS011;42920;45.306;20.448;2023-03-26T06:14:39;6.47;;;3.03;;
57029;SDS011;42920;45.306;20.448;2023-03-26T06:17:07;9.23;;;4.53;;
57029;SDS011;42920;45.306;20.448;2023-03-26T06:19:34;10.93;;;3.72;;
57029;SDS011;42920;45.306;20.448;2023-03-26T06:22:00;6.03;;;3.60;;
57029;SDS011;42920;45.306;20.448;2023-03-26T06:26:51;4.22;;;2.88;;
57029;SDS011;42920;45.306;20.448;2023-03-26T06:29:17;6.55;;;3.10;;
57029;SDS011;42920;45.306;20.448;2023-03-26T06:31:43;5.15;;;2.85;;
57029;SDS011;42920;45.306;20.448;2023-03-26T06:34:08;6.50;;;3.50;;
57029;SDS011;42920;45.306;20.448;2023-03-26T06:36:34;10.93;;;3.30;;
57029;SDS011;42920;45.306;20.448;2023-03-26T06:39:00;5.80;;;3.60;;
57029;SDS011;42920;45.306;20.448;2023-03-26T06:41:26;5.15;;;3.50;;
57029;SDS011;42920;45.306;20.448;2023-03-26T06:43:53;6.25;;;3.28;;
57029;SDS011;42920;45.306;20.448;2023-03-26T06:46:19;5.90;;;3.10;;
57029;SDS011;42920;45.306;20.448;2023-03-26T06:48:47;4.00;;;2.50;;
57029;SDS011;42920;45.306;20.448;2023-03-26T06:51:13;4.78;;;2.47;;
57029;SDS011;42920;45.306;20.448;2023-03-26T06:53:39;5.70;;;3.50;;
57029;SDS011;42920;45.306;20.448;2023-03-26T06:56:04;6.65;;;2.92;;
57029;SDS011;42920;45.306;20.448;2023-03-26T06:58:30;7.53;;;3.67;;
57029;SDS011;42920;45.306;20.448;2023-03-26T07:00:56;5.80;;;3.50;;
57029;SDS011;42920;45.306;20.448;2023-03-26T07:03:22;5.88;;;2.67;;
57029;SDS011;42920;45.306;20.448;2023-03-26T07:05:48;6.57;;;3.40;;
57029;SDS011;42920;45.306;20.448;2023-03-26T07:08:13;14.55;;;3.90;;
57029;SDS011;42920;45.306;20.448;2023-03-26T07:10:40;6.18;;;3.42;;
57029;SDS011;42920;45.306;20.448;2023-03-26T07:13:06;7.18;;;3.85;;
57029;SDS011;42920;45.306;20.448;2023-03-26T07:15:32;7.90;;;3.65;;
57029;SDS011;42920;45.306;20.448;2023-03-26T07:17:57;4.90;;;3.10;;
57029;SDS011;42920;45.306;20.448;2023-03-26T07:20:23;6.95;;;3.55;;
57029;SDS011;42920;45.306;20.448;2023-03-26T07:22:49;8.35;;;3.42;;
57029;SDS011;42920;45.306;20.448;2023-03-26T07:25:16;4.88;;;2.90;;
57029;SDS011;42920;45.306;20.448;2023-03-26T07:33:15;5.28;;;2.75;;
57029;SDS011;42920;45.306;20.448;2023-03-26T07:36:05;5.00;;;2.53;;
57029;SDS011;42920;45.306;20.448;2023-03-26T07:44:09;3.55;;;2.10;;
57029;SDS011;42920;45.306;20.448;2023-03-26T07:46:57;2.40;;;1.35;;
57029;SDS011;42920;45.306;20.448;2023-03-26T07:49:25;3.65;;;1.92;;
57029;SDS011;42920;45.306;20.448;2023-03-26T07:51:53;4.85;;;2.20;;
57029;SDS011;42920;45.306;20.448;2023-03-26T07:54:19;5.30;;;2.50;;
57029;SDS011;42920;45.306;20.448;2023-03-26T07:56:50;4.65;;;1.77;;
57029;SDS011;42920;45.306;20.448;2023-03-26T07:59:36;10.20;;;4.22;;
57029;SDS011;42920;45.306;20.448;2023-03-26T08:10:34;4.85;;;1.70;;
57029;SDS011;42920;45.306;20.448;2023-03-26T08:29:00;2.13;;;1.17;;
57029;SDS011;42920;45.306;20.448;2023-03-26T08:31:45;2.70;;;1.45;;
57029;SDS011;42920;45.306;20.448;2023-03-26T08:34:13;6.90;;;1.73;;
57029;SDS011;42920;45.306;20.448;2023-03-26T08:36:38;1.80;;;1.05;;
57029;SDS011;42920;45.306;20.448;2023-03-26T08:39:05;2.72;;;1.23;;
57029;SDS011;42920;45.306;20.448;2023-03-26T09:30:02;6.40;;;2.35;;
57029;SDS011;42920;45.306;20.448;2023-03-26T09:49:40;2.20;;;1.30;;
57029;SDS011;42920;45.306;20.448;2023-03-26T09:52:24;4.05;;;1.88;;
57029;SDS011;42920;45.306;20.448;2023-03-26T09:55:12;4.45;;;1.63;;
57029;SDS011;42920;45.306;20.448;2023-03-26T10:03:48;3.05;;;1.65;;
57029;SDS011;42920;45.306;20.448;2023-03-26T10:11:56;9.48;;;3.95;;
57029;SDS011;42920;45.306;20.448;2023-03-26T10:14:37;1.92;;;1.42;;
57029;SDS011;42920;45.306;20.448;2023-03-26T10:20:05;4.07;;;1.70;;
57029;SDS011;42920;45.306;20.448;2023-03-26T10:39:05;3.28;;;1.60;;
57029;SDS011;42920;45.306;20.448;2023-03-26T10:50:26;2.67;;;1.50;;
57029;SDS011;42920;45.306;20.448;2023-03-26T10:55:47;2.45;;;1.35;;
57029;SDS011;42920;45.306;20.448;2023-03-26T10:58:23;5.10;;;1.77;;
57029;SDS011;42920;45.306;20.448;2023-03-26T11:06:29;4.32;;;1.45;;
57029;SDS011;42920;45.306;20.448;2023-03-26T11:09:08;4.10;;;1.35;;
57029;SDS011;42920;45.306;20.448;2023-03-26T11:14:29;9.05;;;2.97;;
57029;SDS011;42920;45.306;20.448;2023-03-26T11:17:19;6.80;;;2.47;;
57029;SDS011;42920;45.306;20.448;2023-03-26T11:33:27;5.55;;;1.30;;
57029;SDS011;42920;45.306;20.448;2023-03-26T11:36:00;2.42;;;1.05;;
57029;SDS011;42920;45.306;20.448;2023-03-26T11:38:32;5.15;;;2.95;;
57029;SDS011;42920;45.306;20.448;2023-03-26T11:41:04;2.15;;;1.30;;
57029;SDS011;42920;45.306;20.448;2023-03-26T11:43:37;2.70;;;1.50;;
57029;SDS011;42920;45.306;20.448;2023-03-26T11:46:07;3.50;;;1.30;;
57029;SDS011;42920;45.306;20.448;2023-03-26T11:48:44;11.20;;;5.15;;
57029;SDS011;42920;45.306;20.448;2023-03-26T11:51:32;4.20;;;1.55;;
57029;SDS011;42920;45.306;20.448;2023-03-26T11:54:00;3.85;;;1.30;;
57029;SDS011;42920;45.306;20.448;2023-03-26T11:56:35;7.57;;;4.43;;
57029;SDS011;42920;45.306;20.448;2023-03-26T11:59:20;7.10;;;3.60;;
57029;SDS011;42920;45.306;20.448;2023-03-26T12:04:33;5.65;;;3.40;;
57029;SDS011;42920;45.306;20.448;2023-03-26T12:07:19;14.32;;;6.22;;
57029;SDS011;42920;45.306;20.448;2023-03-26T12:12:27;4.05;;;1.80;;
57029;SDS011;42920;45.306;20.448;2023-03-26T12:14:56;5.13;;;3.00;;
57029;SDS011;42920;45.306;20.448;2023-03-26T12:19:54;4.22;;;2.00;;
57029;SDS011;42920;45.306;20.448;2023-03-26T12:22:41;3.30;;;1.90;;
57029;SDS011;42920;45.306;20.448;2023-03-26T12:30:32;6.47;;;3.08;;
57029;SDS011;42920;45.306;20.448;2023-03-26T12:33:04;3.00;;;1.30;;
57029;SDS011;42920;45.306;20.448;2023-03-26T12:35:42;9.63;;;6.18;;
57029;SDS011;42920;45.306;20.448;2023-03-26T12:38:42;4.97;;;2.22;;
57029;SDS011;42920;45.306;20.448;2023-03-26T12:41:13;2.83;;;1.55;;
57029;SDS011;42920;45.306;20.448;2023-03-26T12:43:42;2.42;;;1.50;;
57029;SDS011;42920;45.306;20.448;2023-03-26T12:54:20;3.88;;;2.80;;
57029;SDS011;42920;45.306;20.448;2023-03-26T12:56:46;3.67;;;1.35;;
57029;SDS011;42920;45.306;20.448;2023-03-26T13:13:27;5.78;;;1.67;;
57029;SDS011;42920;45.306;20.448;2023-03-26T13:15:58;4.13;;;1.27;;
57029;SDS011;42920;45.306;20.448;2023-03-26T13:21:18;2.30;;;1.20;;
57029;SDS011;42920;45.306;20.448;2023-03-26T13:32:00;4.50;;;1.27;;
57029;SDS011;42920;45.306;20.448;2023-03-26T13:34:58;1.80;;;0.90;;
57029;SDS011;42920;45.306;20.448;2023-03-26T13:37:55;2.53;;;1.20;;
57029;SDS011;42920;45.306;20.448;2023-03-26T13:43:36;2.42;;;1.10;;
57029;SDS011;42920;45.306;20.448;2023-03-26T13:48:55;3.60;;;1.75;;
57029;SDS011;42920;45.306;20.448;2023-03-26T13:51:26;3.63;;;1.50;;
57029;SDS011;42920;45.306;20.448;2023-03-26T13:54:12;7.75;;;1.85;;
57029;SDS011;42920;45.306;20.448;2023-03-26T13:56:42;2.25;;;1.05;;
57029;SDS011;42920;45.306;20.448;2023-03-26T13:59:42;5.03;;;1.58;;
57029;SDS011;42920;45.306;20.448;2023-03-26T14:02:43;1.40;;;0.93;;
57029;SDS011;42920;45.306;20.448;2023-03-26T14:05:20;5.32;;;1.00;;
57029;SDS011;42920;45.306;20.448;2023-03-26T14:10:28;5.55;;;1.50;;
57029;SDS011;42920;45.306;20.448;2023-03-26T14:15:40;3.95;;;2.83;;
57029;SDS011;42920;45.306;20.448;2023-03-26T14:18:26;6.78;;;2.90;;
57029;SDS011;42920;45.306;20.448;2023-03-26T14:30:21;3.40;;;1.65;;
57029;SDS011;42920;45.306;20.448;2023-03-26T14:38:05;5.20;;;1.27;;
57029;SDS011;42920;45.306;20.448;2023-03-26T14:54:36;10.98;;;4.05;;
57029;SDS011;42920;45.306;20.448;2023-03-26T15:10:48;2.78;;;1.35;;
57029;SDS011;42920;45.306;20.448;2023-03-26T15:13:40;10.48;;;4.30;;
57029;SDS011;42920;45.306;20.448;2023-03-26T15:27:55;4.32;;;2.08;;
57029;SDS011;42920;45.306;20.448;2023-03-26T15:48:05;7.70;;;3.58;;
57029;SDS011;42920;45.306;20.448;2023-03-26T15:56:51;5.53;;;2.08;;
57029;SDS011;42920;45.306;20.448;2023-03-26T15:59:55;10.10;;;3.63;;
57029;SDS011;42920;45.306;20.448;2023-03-26T16:10:50;5.57;;;2.53;;
57029;SDS011;42920;45.306;20.448;2023-03-26T16:13:29;3.60;;;1.63;;
57029;SDS011;42920;45.306;20.448;2023-03-26T16:18:42;5.70;;;1.52;;
57029;SDS011;42920;45.306;20.448;2023-03-26T16:23:56;8.27;;;2.88;;
57029;SDS011;42920;45.306;20.448;2023-03-26T16:29:26;22.70;;;11.75;;
57029;SDS011;42920;45.306;20.448;2023-03-26T16:34:50;6.03;;;2.38;;
57029;SDS011;42920;45.306;20.448;2023-03-26T16:42:52;4.82;;;1.92;;
57029;SDS011;42920;45.306;20.448;2023-03-26T16:56:29;6.60;;;2.20;;
57029;SDS011;42920;45.306;20.448;2023-03-26T16:59:05;5.30;;;2.17;;
57029;SDS011;42920;45.306;20.448;2023-03-26T17:01:41;5.83;;;2.60;;
57029;SDS011;42920;45.306;20.448;2023-03-26T17:06:55;11.43;;;3.35;;
57029;SDS011;42920;45.306;20.448;2023-03-26T17:12:41;7.35;;;3.35;;
57029;SDS011;42920;45.306;20.448;2023-03-26T17:31:42;11.85;;;2.85;;
57029;SDS011;42920;45.306;20.448;2023-03-26T17:44:51;9.07;;;3.22;;
57029;SDS011;42920;45.306;20.448;2023-03-26T17:47:23;7.03;;;3.10;;
57029;SDS011;42920;45.306;20.448;2023-03-26T17:49:58;13.95;;;3.85;;
57029;SDS011;42920;45.306;20.448;2023-03-26T17:52:52;6.72;;;3.30;;
57029;SDS011;42920;45.306;20.448;2023-03-26T17:55:22;7.28;;;3.90;;
57029;SDS011;42920;45.306;20.448;2023-03-26T17:58:05;9.50;;;4.50;;
57029;SDS011;42920;45.306;20.448;2023-03-26T18:00:44;10.07;;;4.28;;
57029;SDS011;42920;45.306;20.448;2023-03-26T18:03:18;12.60;;;5.43;;
57029;SDS011;42920;45.306;20.448;2023-03-26T18:05:53;9.60;;;4.82;;
57029;SDS011;42920;45.306;20.448;2023-03-26T18:11:19;7.93;;;4.68;;
57029;SDS011;42920;45.306;20.448;2023-03-26T18:17:20;11.07;;;5.32;;
57029;SDS011;42920;45.306;20.448;2023-03-26T18:19:48;12.38;;;5.43;;
57029;SDS011;42920;45.306;20.448;2023-03-26T18:22:21;12.95;;;5.03;;
57029;SDS011;42920;45.306;20.448;2023-03-26T18:24:53;15.30;;;5.53;;
57029;SDS011;42920;45.306;20.448;2023-03-26T18:27:24;16.20;;;6.85;;
57029;SDS011;42920;45.306;20.448;2023-03-26T18:30:12;14.18;;;5.45;;
57029;SDS011;42920;45.306;20.448;2023-03-26T18:32:56;15.43;;;5.32;;
57029;SDS011;42920;45.306;20.448;2023-03-26T18:35:26;11.48;;;5.80;;
57029;SDS011;42920;45.306;20.448;2023-03-26T18:38:03;9.48;;;5.22;;
57029;SDS011;42920;45.306;20.448;2023-03-26T18:40:32;8.65;;;4.40;;
57029;SDS011;42920;45.306;20.448;2023-03-26T18:43:03;6.32;;;3.28;;
57029;SDS011;42920;45.306;20.448;2023-03-26T18:45:31;6.85;;;3.38;;
57029;SDS011;42920;45.306;20.448;2023-03-26T18:48:20;7.57;;;4.00;;
57029;SDS011;42920;45.306;20.448;2023-03-26T18:50:47;9.68;;;3.92;;
57029;SDS011;42920;45.306;20.448;2023-03-26T18:53:19;7.22;;;3.30;;
57029;SDS011;42920;45.306;20.448;2023-03-26T18:55:47;8.15;;;3.30;;
57029;SDS011;42920;45.306;20.448;2023-03-26T18:58:25;6.00;;;3.10;;
57029;SDS011;42920;45.306;20.448;2023-03-26T19:01:07;7.65;;;3.17;;
57029;SDS011;42920;45.306;20.448;2023-03-26T19:03:36;10.52;;;2.72;;
57029;SDS011;42920;45.306;20.448;2023-03-26T19:06:05;6.40;;;2.35;;
57029;SDS011;42920;45.306;20.448;2023-03-26T19:08:34;9.70;;;2.70;;
57029;SDS011;42920;45.306;20.448;2023-03-26T19:11:08;8.38;;;2.70;;
57029;SDS011;42920;45.306;20.448;2023-03-26T19:13:36;5.53;;;2.40;;
57029;SDS011;42920;45.306;20.448;2023-03-26T19:18:50;7.30;;;2.40;;
57029;SDS011;42920;45.306;20.448;2023-03-26T19:21:18;9.80;;;2.78;;
57029;SDS011;42920;45.306;20.448;2023-03-26T19:23:47;6.53;;;3.03;;
57029;SDS011;42920;45.306;20.448;2023-03-26T19:26:15;8.88;;;3.35;;
57029;SDS011;42920;45.306;20.448;2023-03-26T19:28:42;8.00;;;3.20;;
57029;SDS011;42920;45.306;20.448;2023-03-26T19:33:41;8.93;;;3.50;;
57029;SDS011;42920;45.306;20.448;2023-03-26T19:36:18;5.60;;;2.10;;
57029;SDS011;42920;45.306;20.448;2023-03-26T19:41:19;6.32;;;2.20;;
57029;SDS011;42920;45.306;20.448;2023-03-26T19:43:47;5.20;;;2.05;;
57029;SDS011;42920;45.306;20.448;2023-03-26T19:46:15;5.43;;;2.25;;
57029;SDS011;42920;45.306;20.448;2023-03-26T19:48:41;6.32;;;2.20;;
57029;SDS011;42920;45.306;20.448;2023-03-26T19:51:16;4.88;;;2.10;;
57029;SDS011;42920;45.306;20.448;2023-03-26T19:53:50;7.53;;;2.28;;
57029;SDS011;42920;45.306;20.448;2023-03-26T19:56:22;4.85;;;2.22;;
57029;SDS011;42920;45.306;20.448;2023-03-26T19:58:48;4.93;;;2.13;;
57029;SDS011;42920;45.306;20.448;2023-03-26T20:01:15;3.45;;;1.73;;
57029;SDS011;42920;45.306;20.448;2023-03-26T20:03:47;7.38;;;2.03;;
57029;SDS011;42920;45.306;20.448;2023-03-26T20:06:17;3.50;;;1.70;;
57029;SDS011;42920;45.306;20.448;2023-03-26T20:08:45;7.78;;;1.90;;
57029;SDS011;42920;45.306;20.448;2023-03-26T20:11:21;4.63;;;1.90;;
57029;SDS011;42920;45.306;20.448;2023-03-26T20:13:50;5.43;;;2.13;;
57029;SDS011;42920;45.306;20.448;2023-03-26T20:16:26;5.68;;;2.20;;
57029;SDS011;42920;45.306;20.448;2023-03-26T20:18:54;6.93;;;2.30;;
57029;SDS011;42920;45.306;20.448;2023-03-26T20:21:25;5.32;;;2.20;;
57029;SDS011;42920;45.306;20.448;2023-03-26T20:23:51;4.95;;;2.03;;
57029;SDS011;42920;45.306;20.448;2023-03-26T20:26:20;14.73;;;2.67;;
57029;SDS011;42920;45.306;20.448;2023-03-26T20:28:47;5.15;;;2.22;;
57029;SDS011;42920;45.306;20.448;2023-03-26T20:31:20;7.80;;;2.00;;
57029;SDS011;42920;45.306;20.448;2023-03-26T20:33:49;9.80;;;2.65;;
57029;SDS011;42920;45.306;20.448;2023-03-26T20:36:16;5.32;;;2.22;;
57029;SDS011;42920;45.306;20.448;2023-03-26T20:38:43;7.55;;;2.60;;
57029;SDS011;42920;45.306;20.448;2023-03-26T20:41:20;4.85;;;1.92;;
57029;SDS011;42920;45.306;20.448;2023-03-26T20:43:47;7.47;;;2.25;;
57029;SDS011;42920;45.306;20.448;2023-03-26T20:46:20;6.70;;;2.25;;
57029;SDS011;42920;45.306;20.448;2023-03-26T20:48:47;3.88;;;1.73;;
57029;SDS011;42920;45.306;20.448;2023-03-26T20:51:13;5.38;;;2.15;;
57029;SDS011;42920;45.306;20.448;2023-03-26T20:53:43;8.77;;;2.40;;
57029;SDS011;42920;45.306;20.448;2023-03-26T20:56:14;5.68;;;2.80;;
57029;SDS011;42920;45.306;20.448;2023-03-26T20:58:44;5.90;;;2.97;;
57029;SDS011;42920;45.306;20.448;2023-03-26T21:01:13;5.10;;;2.10;;
57029;SDS011;42920;45.306;20.448;2023-03-26T21:03:41;8.02;;;3.60;;
57029;SDS011;42920;45.306;20.448;2023-03-26T21:06:10;6.95;;;2.92;;
57029;SDS011;42920;45.306;20.448;2023-03-26T21:08:38;5.38;;;2.53;;
57029;SDS011;42920;45.306;20.448;2023-03-26T21:11:13;6.80;;;3.10;;
57029;SDS011;42920;45.306;20.448;2023-03-26T21:14:04;7.30;;;2.47;;
57029;SDS011;42920;45.306;20.448;2023-03-26T21:16:33;9.63;;;3.33;;
57029;SDS011;42920;45.306;20.448;2023-03-26T21:18:59;9.13;;;2.50;;
57029;SDS011;42920;45.306;20.448;2023-03-26T21:24:26;6.65;;;2.65;;
57029;SDS011;42920;45.306;20.448;2023-03-26T21:29:53;8.68;;;2.38;;
57029;SDS011;42920;45.306;20.448;2023-03-26T21:32:19;4.82;;;2.30;;
57029;SDS011;42920;45.306;20.448;2023-03-26T21:34:46;4.57;;;2.42;;
57029;SDS011;42920;45.306;20.448;2023-03-26T21:37:13;11.15;;;3.17;;
57029;SDS011;42920;45.306;20.448;2023-03-26T21:39:42;6.20;;;3.05;;
57029;SDS011;42920;45.306;20.448;2023-03-26T21:42:09;7.28;;;2.63;;
57029;SDS011;42920;45.306;20.448;2023-03-26T21:44:36;7.97;;;3.10;;
57029;SDS011;42920;45.306;20.448;2023-03-26T21:47:03;20.33;;;3.67;;
57029;SDS011;42920;45.306;20.448;2023-03-26T21:49:31;8.38;;;3.50;;
57029;SDS011;42920;45.306;20.448;2023-03-26T21:51:58;7.35;;;3.05;;
57029;SDS011;42920;45.306;20.448;2023-03-26T21:54:25;6.57;;;3.28;;
57029;SDS011;42920;45.306;20.448;2023-03-26T22:01:59;9.10;;;3.58;;
57029;SDS011;42920;45.306;20.448;2023-03-26T22:07:02;8.52;;;3.75;;
57029;SDS011;42920;45.306;20.448;2023-03-26T22:09:58;8.85;;;3.50;;
57029;SDS011;42920;45.306;20.448;2023-03-26T22:12:24;8.95;;;3.38;;